createdAt,value
2023-04-09T00:00:12.155Z,6.94
2023-04-09T00:02:38.974Z,6.93
2023-04-09T00:05:06.428Z,6.90
2023-04-09T00:07:32.994Z,6.91
2023-04-09T00:09:59.558Z,6.90
2023-04-09T00:12:26.376Z,6.91
2023-04-09T00:14:52.986Z,6.90
2023-04-09T00:17:19.562Z,6.92
2023-04-09T00:19:46.426Z,6.90
2023-04-09T00:22:13.036Z,6.88
2023-04-09T00:24:39.634Z,6.89
2023-04-09T00:27:06.173Z,6.90
2023-04-09T00:29:32.732Z,6.90
2023-04-09T00:31:59.345Z,6.90
2023-04-09T00:34:26.204Z,6.88
2023-04-09T00:36:52.708Z,6.86
2023-04-09T00:39:19.299Z,6.84
2023-04-09T00:41:45.853Z,6.83
2023-04-09T00:44:12.483Z,6.84
2023-04-09T00:46:39.685Z,6.83
2023-04-09T00:49:06.636Z,6.85
2023-04-09T00:51:33.565Z,6.86
2023-04-09T00:54:00.162Z,6.87
2023-04-09T00:56:27.260Z,6.88
2023-04-09T00:58:54.336Z,6.87
2023-04-09T01:01:21.028Z,6.86
2023-04-09T01:03:47.874Z,6.87
2023-04-09T01:06:14.567Z,6.84
2023-04-09T01:08:43.962Z,6.84
2023-04-09T01:11:24.372Z,6.85
2023-04-09T01:13:56.704Z,6.84
2023-04-09T01:16:24.307Z,6.85
2023-04-09T01:18:53.442Z,6.86
2023-04-09T01:21:22.215Z,6.84
2023-04-09T01:23:59.995Z,6.86
2023-04-09T01:26:35.832Z,6.83
2023-04-09T01:29:02.767Z,6.83
2023-04-09T01:31:34.283Z,6.81
2023-04-09T01:34:01.215Z,6.81
2023-04-09T01:36:29.400Z,6.80
2023-04-09T01:38:56.408Z,6.79
2023-04-09T01:41:23.766Z,6.79
2023-04-09T01:43:51.315Z,6.79
2023-04-09T01:46:18.360Z,6.90
2023-04-09T01:48:45.642Z,6.97
2023-04-09T01:51:14.238Z,6.94
2023-04-09T01:53:41.278Z,6.93
2023-04-09T01:56:08.557Z,6.90
2023-04-09T01:58:35.947Z,6.87
2023-04-09T02:01:05.927Z,6.86
2023-04-09T02:03:45.280Z,6.85
2023-04-09T02:06:17.202Z,6.84
2023-04-09T02:08:45.478Z,6.84
2023-04-09T02:11:12.488Z,6.87
2023-04-09T02:13:40.778Z,6.83
2023-04-09T02:16:28.042Z,6.77
2023-04-09T02:18:55.969Z,6.75
2023-04-09T02:21:23.119Z,6.73
2023-04-09T02:23:50.335Z,6.66
2023-04-09T02:26:16.830Z,6.71
2023-04-09T02:28:43.367Z,6.66
2023-04-09T02:31:10.258Z,6.66
2023-04-09T02:33:36.962Z,6.64
2023-04-09T02:36:03.669Z,6.60
2023-04-09T02:38:30.518Z,6.60
2023-04-09T02:40:57.050Z,6.59
2023-04-09T02:43:23.704Z,6.61
2023-04-09T02:45:50.672Z,6.62
2023-04-09T02:48:17.215Z,6.61
2023-04-09T02:50:43.780Z,6.54
2023-04-09T02:53:10.521Z,6.51
2023-04-09T02:55:37.161Z,6.48
2023-04-09T02:58:03.738Z,6.47
2023-04-09T03:00:30.296Z,6.43
2023-04-09T03:02:58.026Z,6.42
2023-04-09T03:05:24.813Z,6.39
2023-04-09T03:07:51.539Z,6.41
2023-04-09T03:10:18.142Z,6.37
2023-04-09T03:12:44.737Z,6.36
2023-04-09T03:15:11.308Z,6.37
2023-04-09T03:17:37.878Z,6.35
2023-04-09T03:20:04.834Z,6.31
2023-04-09T03:22:35.676Z,6.27
2023-04-09T03:25:02.184Z,6.26
2023-04-09T03:27:28.758Z,6.25
2023-04-09T03:29:58.014Z,6.25
2023-04-09T03:32:24.638Z,6.24
2023-04-09T03:34:51.195Z,6.24
2023-04-09T03:37:17.799Z,6.20
2023-04-09T03:39:44.327Z,6.19
2023-04-09T03:42:11.014Z,6.17
2023-04-09T03:44:37.573Z,6.15
2023-04-09T03:47:04.084Z,6.16
2023-04-09T03:49:30.627Z,6.13
2023-04-09T03:51:57.202Z,6.11
2023-04-09T03:54:23.828Z,6.13
2023-04-09T03:56:50.675Z,6.11
2023-04-09T03:59:17.224Z,6.11
2023-04-09T04:01:44.014Z,6.12
2023-04-09T04:04:10.836Z,6.12
2023-04-09T04:06:37.474Z,6.15
2023-04-09T04:09:04.102Z,6.14
2023-04-09T04:11:30.746Z,6.14
2023-04-09T04:13:57.308Z,6.12
2023-04-09T04:16:23.974Z,6.12
2023-04-09T04:18:51.136Z,6.14
2023-04-09T04:21:18.129Z,6.20
2023-04-09T04:23:44.656Z,6.22
2023-04-09T04:26:11.539Z,6.24
2023-04-09T04:28:38.709Z,6.38
2023-04-09T04:31:09.182Z,6.43
2023-04-09T04:33:35.827Z,6.44
2023-04-09T04:36:06.845Z,6.44
2023-04-09T04:38:34.124Z,6.44
2023-04-09T04:41:00.757Z,6.50
2023-04-09T04:43:27.457Z,6.53
2023-04-09T04:45:54.396Z,6.59
2023-04-09T04:48:21.635Z,6.64
2023-04-09T04:50:54.619Z,6.68
2023-04-09T04:53:21.190Z,6.75
2023-04-09T04:55:47.726Z,6.84
2023-04-09T04:58:14.326Z,6.87
2023-04-09T05:00:40.928Z,6.88
2023-04-09T05:03:07.601Z,6.88
2023-04-09T05:05:34.222Z,6.88
2023-04-09T05:08:00.850Z,6.89
2023-04-09T05:10:27.399Z,6.88
2023-04-09T05:12:53.979Z,6.86
2023-04-09T05:15:20.741Z,6.87
2023-04-09T05:17:47.392Z,6.93
2023-04-09T05:20:14.055Z,7.01
2023-04-09T05:22:40.766Z,7.09
2023-04-09T05:25:08.031Z,7.20
2023-04-09T05:27:34.591Z,7.29
2023-04-09T05:30:01.321Z,7.41
2023-04-09T05:32:27.883Z,7.51
2023-04-09T05:34:54.510Z,7.59
2023-04-09T05:37:21.094Z,7.65
2023-04-09T05:39:47.623Z,7.70
2023-04-09T05:42:14.177Z,7.75
2023-04-09T05:44:40.912Z,7.84
2023-04-09T05:47:07.530Z,7.89
2023-04-09T05:49:34.052Z,7.98
2023-04-09T05:52:00.813Z,8.05
2023-04-09T05:54:27.511Z,8.22
2023-04-09T05:56:54.054Z,8.40
2023-04-09T05:59:20.693Z,8.50
2023-04-09T06:01:47.293Z,8.58
2023-04-09T06:04:14.098Z,8.73
2023-04-09T06:06:40.811Z,8.82
2023-04-09T06:09:07.376Z,8.90
2023-04-09T06:11:34.306Z,8.98
2023-04-09T06:14:00.845Z,9.07
2023-04-09T06:16:27.501Z,9.14
2023-04-09T06:18:54.653Z,9.23
2023-04-09T06:21:21.206Z,9.27
2023-04-09T06:23:47.802Z,9.36
2023-04-09T06:26:14.378Z,9.40
2023-04-09T06:28:41.003Z,9.47
2023-04-09T06:31:07.576Z,9.57
2023-04-09T06:33:34.296Z,9.64
2023-04-09T06:36:00.909Z,9.68
2023-04-09T06:38:27.546Z,9.75
2023-04-09T06:40:55.742Z,9.81
2023-04-09T06:43:22.277Z,9.81
2023-04-09T06:45:48.908Z,9.89
2023-04-09T06:48:15.512Z,9.92
2023-04-09T06:50:42.105Z,9.98
2023-04-09T06:53:08.718Z,10.00
2023-04-09T06:55:35.324Z,10.04
2023-04-09T06:58:02.821Z,10.09
2023-04-09T07:00:29.621Z,10.17
2023-04-09T07:02:56.874Z,10.21
2023-04-09T07:05:24.146Z,10.32
2023-04-09T07:07:50.790Z,10.48
2023-04-09T07:10:17.299Z,10.68
2023-04-09T07:12:43.914Z,10.82
2023-04-09T07:15:10.568Z,10.95
2023-04-09T07:17:37.172Z,11.03
2023-04-09T07:20:04.121Z,11.13
2023-04-09T07:22:33.640Z,11.21
2023-04-09T07:25:00.661Z,11.26
2023-04-09T07:27:27.771Z,11.24
2023-04-09T07:29:55.435Z,11.23
2023-04-09T07:32:22.004Z,11.25
2023-04-09T07:34:48.656Z,11.29
2023-04-09T07:37:15.457Z,11.41
2023-04-09T07:39:42.753Z,11.55
2023-04-09T07:42:09.488Z,11.72
2023-04-09T07:44:36.551Z,11.79
2023-04-09T07:47:04.001Z,11.88
2023-04-09T07:49:30.712Z,11.90
2023-04-09T07:51:57.787Z,12.01
2023-04-09T07:54:25.064Z,12.06
2023-04-09T07:56:51.664Z,12.07
2023-04-09T07:59:18.387Z,12.05
2023-04-09T08:01:45.290Z,12.00
2023-04-09T08:04:13.328Z,11.93
2023-04-09T08:06:40.023Z,11.99
2023-04-09T08:09:06.753Z,11.97
2023-04-09T08:11:33.388Z,11.97
2023-04-09T08:14:03.018Z,12.06
2023-04-09T08:16:30.558Z,12.17
2023-04-09T08:18:57.608Z,12.19
2023-04-09T08:21:24.325Z,12.29
2023-04-09T08:23:51.318Z,12.46
2023-04-09T08:26:18.006Z,12.56
2023-04-09T08:28:44.591Z,12.75
2023-04-09T08:31:11.158Z,12.95
2023-04-09T08:33:37.783Z,13.01
2023-04-09T08:36:08.147Z,12.94
2023-04-09T08:38:34.780Z,12.96
2023-04-09T08:41:01.332Z,12.96
2023-04-09T08:43:41.978Z,12.99
2023-04-09T08:46:16.820Z,12.88
2023-04-09T08:48:47.200Z,12.92
2023-04-09T08:51:14.956Z,12.86
2023-04-09T08:53:48.322Z,12.87
2023-04-09T08:56:15.807Z,12.96
2023-04-09T08:58:43.633Z,13.03
2023-04-09T09:01:20.387Z,12.95
2023-04-09T09:04:06.654Z,12.88
2023-04-09T09:06:37.348Z,12.94
2023-04-09T09:09:11.334Z,12.86
2023-04-09T09:11:42.115Z,12.87
2023-04-09T09:14:09.628Z,12.91
2023-04-09T09:16:40.343Z,13.06
2023-04-09T09:19:07.232Z,13.23
2023-04-09T09:21:34.362Z,13.33
2023-04-09T09:24:00.992Z,13.40
2023-04-09T09:26:28.903Z,13.52
2023-04-09T09:28:56.520Z,13.50
2023-04-09T09:31:23.547Z,13.45
2023-04-09T09:33:51.126Z,13.47
2023-04-09T09:36:33.697Z,13.51
2023-04-09T09:39:03.824Z,13.47
2023-04-09T09:41:30.587Z,13.30
2023-04-09T09:43:57.238Z,13.25
2023-04-09T09:46:24.926Z,13.23
2023-04-09T09:48:51.853Z,13.35
2023-04-09T09:51:19.675Z,13.54
2023-04-09T09:53:49.570Z,13.61
2023-04-09T09:56:21.901Z,13.60
2023-04-09T09:59:07.394Z,13.63
2023-04-09T10:01:35.603Z,13.78
2023-04-09T10:04:03.222Z,13.92
2023-04-09T10:06:31.004Z,14.00
2023-04-09T10:08:58.349Z,14.04
2023-04-09T10:11:25.201Z,14.11
2023-04-09T10:13:56.651Z,14.15
2023-04-09T10:16:24.023Z,14.31
2023-04-09T10:18:51.118Z,14.40
2023-04-09T10:21:27.331Z,14.39
2023-04-09T10:23:54.127Z,14.32
2023-04-09T10:26:20.835Z,14.55
2023-04-09T10:28:47.662Z,15.14
2023-04-09T10:31:14.278Z,15.59
2023-04-09T10:33:43.619Z,16.18
2023-04-09T10:36:12.301Z,16.90
2023-04-09T10:38:41.079Z,17.29
2023-04-09T10:41:09.749Z,17.29
2023-04-09T10:43:36.850Z,17.09
2023-04-09T10:46:04.829Z,17.15
2023-04-09T10:48:35.050Z,17.16
2023-04-09T10:51:04.450Z,16.60
2023-04-09T10:53:32.278Z,16.15
2023-04-09T10:55:58.814Z,15.55
2023-04-09T10:58:25.399Z,15.24
2023-04-09T11:00:52.036Z,14.95
2023-04-09T11:03:24.683Z,14.72
2023-04-09T11:05:52.747Z,14.47
2023-04-09T11:08:19.434Z,14.33
2023-04-09T11:10:48.661Z,14.27
2023-04-09T11:13:18.239Z,14.43
2023-04-09T11:15:45.778Z,14.55
2023-04-09T11:18:16.155Z,14.61
2023-04-09T11:20:43.124Z,14.79
2023-04-09T11:23:10.691Z,14.96
2023-04-09T11:25:37.210Z,15.41
2023-04-09T11:28:05.155Z,15.51
2023-04-09T11:30:31.924Z,15.29
2023-04-09T11:32:58.528Z,14.98
2023-04-09T11:35:25.610Z,14.74
2023-04-09T11:37:52.538Z,14.57
2023-04-09T11:40:20.336Z,14.44
2023-04-09T11:42:48.941Z,14.23
2023-04-09T11:45:16.275Z,14.06
2023-04-09T11:47:43.487Z,13.87
2023-04-09T11:50:10.854Z,13.85
2023-04-09T11:52:37.888Z,13.81
2023-04-09T11:55:08.280Z,13.81
2023-04-09T11:57:47.312Z,13.82
2023-04-09T12:00:15.015Z,13.80
2023-04-09T12:02:43.034Z,13.73
2023-04-09T12:05:10.869Z,13.70
2023-04-09T12:07:38.644Z,13.73
2023-04-09T12:10:07.074Z,13.75
2023-04-09T12:12:40.067Z,13.75
2023-04-09T12:15:20.153Z,13.70
2023-04-09T12:17:47.514Z,13.63
2023-04-09T12:20:14.067Z,13.61
2023-04-09T12:22:41.404Z,13.59
2023-04-09T12:25:08.736Z,13.64
2023-04-09T12:27:35.340Z,13.65
2023-04-09T12:30:01.901Z,13.67
2023-04-09T12:32:28.807Z,13.74
2023-04-09T12:34:55.745Z,13.89
2023-04-09T12:37:22.762Z,14.12
2023-04-09T12:39:49.437Z,14.47
2023-04-09T12:42:16.227Z,15.23
2023-04-09T12:44:42.794Z,15.99
2023-04-09T12:47:09.387Z,16.48
2023-04-09T12:49:35.934Z,16.71
2023-04-09T12:52:02.550Z,16.82
2023-04-09T12:54:29.167Z,16.80
2023-04-09T12:56:55.947Z,16.71
2023-04-09T12:59:22.490Z,16.47
2023-04-09T13:01:49.088Z,16.16
2023-04-09T13:04:16.598Z,15.76
2023-04-09T13:06:43.261Z,15.46
2023-04-09T13:09:09.789Z,15.24
2023-04-09T13:11:36.359Z,15.00
2023-04-09T13:14:02.943Z,14.72
2023-04-09T13:16:29.528Z,14.47
2023-04-09T13:18:56.079Z,14.33
2023-04-09T13:21:22.712Z,14.22
2023-04-09T13:23:49.336Z,14.12
2023-04-09T13:26:16.368Z,14.03
2023-04-09T13:28:42.990Z,14.00
2023-04-09T13:31:09.626Z,13.98
2023-04-09T13:33:36.223Z,13.93
2023-04-09T13:36:02.848Z,13.87
2023-04-09T13:38:29.428Z,13.85
2023-04-09T13:40:56.061Z,13.84
2023-04-09T13:43:27.910Z,13.84
2023-04-09T13:45:54.778Z,13.84
2023-04-09T13:48:21.985Z,13.75
2023-04-09T13:50:48.526Z,13.69
2023-04-09T13:53:15.288Z,13.65
2023-04-09T13:55:41.885Z,13.63
2023-04-09T13:58:08.496Z,13.63
2023-04-09T14:00:36.084Z,13.59
2023-04-09T14:03:03.548Z,13.44
2023-04-09T14:05:30.599Z,13.09
2023-04-09T14:07:57.166Z,12.90
2023-04-09T14:10:23.783Z,12.84
2023-04-09T14:12:50.709Z,12.68
2023-04-09T14:15:17.322Z,12.46
2023-04-09T14:17:44.338Z,12.31
2023-04-09T14:20:10.939Z,12.19
2023-04-09T14:22:37.523Z,12.12
2023-04-09T14:25:04.327Z,12.11
2023-04-09T14:27:31.074Z,12.05
2023-04-09T14:29:57.715Z,12.00
2023-04-09T14:32:24.350Z,12.01
2023-04-09T14:34:50.930Z,12.09
2023-04-09T14:37:17.536Z,12.10
2023-04-09T14:39:44.075Z,12.12
2023-04-09T14:42:10.939Z,12.17
2023-04-09T14:44:37.542Z,12.27
2023-04-09T14:47:04.207Z,12.29
2023-04-09T14:49:30.909Z,12.35
2023-04-09T14:51:57.776Z,12.46
2023-04-09T14:54:24.412Z,12.47
2023-04-09T14:56:51.191Z,12.45
2023-04-09T14:59:17.788Z,12.47
2023-04-09T15:01:44.445Z,12.50
2023-04-09T15:04:11.394Z,12.51
2023-04-09T15:06:38.223Z,12.53
2023-04-09T15:09:05.046Z,12.58
2023-04-09T15:11:31.603Z,12.59
2023-04-09T15:13:58.143Z,12.57
2023-04-09T15:16:26.008Z,12.54
2023-04-09T15:18:55.693Z,12.52
2023-04-09T15:21:22.680Z,12.49
2023-04-09T15:23:52.482Z,12.48
2023-04-09T15:26:19.225Z,12.47
2023-04-09T15:28:46.293Z,12.50
2023-04-09T15:31:13.260Z,12.52
2023-04-09T15:33:42.277Z,12.54
2023-04-09T15:36:09.192Z,12.55
2023-04-09T15:38:36.118Z,12.55
2023-04-09T15:41:02.674Z,12.57
2023-04-09T15:43:29.215Z,12.57
2023-04-09T15:45:56.205Z,12.61
2023-04-09T15:48:22.852Z,12.66
2023-04-09T15:50:49.408Z,12.67
2023-04-09T15:53:16.014Z,12.63
2023-04-09T15:55:42.698Z,12.59
2023-04-09T15:58:09.338Z,12.52
2023-04-09T16:00:35.898Z,12.48
2023-04-09T16:03:02.540Z,12.41
2023-04-09T16:05:29.150Z,12.35
2023-04-09T16:07:58.290Z,12.28
2023-04-09T16:10:26.432Z,12.21
2023-04-09T16:12:52.977Z,12.17
2023-04-09T16:15:22.248Z,12.17
2023-04-09T16:17:48.869Z,12.16
2023-04-09T16:20:15.443Z,12.16
2023-04-09T16:22:42.014Z,12.14
2023-04-09T16:25:08.890Z,12.11
2023-04-09T16:27:35.480Z,12.08
2023-04-09T16:30:02.209Z,12.03
2023-04-09T16:32:30.160Z,11.98
2023-04-09T16:35:00.535Z,11.96
2023-04-09T16:37:27.999Z,11.94
2023-04-09T16:39:54.646Z,11.93
2023-04-09T16:42:21.655Z,11.90
2023-04-09T16:44:48.292Z,11.91
2023-04-09T16:47:14.895Z,11.92
2023-04-09T16:49:41.601Z,11.94
2023-04-09T16:52:08.294Z,11.92
2023-04-09T16:54:34.867Z,11.91
2023-04-09T16:57:01.917Z,11.85
2023-04-09T16:59:28.603Z,11.79
2023-04-09T17:01:55.421Z,11.76
2023-04-09T17:04:22.285Z,11.69
2023-04-09T17:06:48.948Z,11.63
2023-04-09T17:09:16.384Z,11.56
2023-04-09T17:11:44.809Z,11.50
2023-04-09T17:14:11.602Z,11.45
2023-04-09T17:16:38.206Z,11.41
2023-04-09T17:19:04.947Z,11.36
2023-04-09T17:21:31.547Z,11.32
2023-04-09T17:23:58.236Z,11.28
2023-04-09T17:26:24.836Z,11.24
2023-04-09T17:28:52.548Z,11.22
2023-04-09T17:31:19.516Z,11.19
2023-04-09T17:33:49.347Z,11.14
2023-04-09T17:36:19.727Z,11.09
2023-04-09T17:38:47.313Z,11.04
2023-04-09T17:41:14.102Z,11.00
2023-04-09T17:43:40.960Z,10.95
2023-04-09T17:46:08.811Z,10.93
2023-04-09T17:48:38.363Z,10.88
2023-04-09T17:51:05.672Z,10.86
2023-04-09T17:53:32.402Z,10.85
2023-04-09T17:55:59.166Z,10.86
2023-04-09T17:58:26.095Z,10.88
2023-04-09T18:00:53.889Z,10.86
2023-04-09T18:03:21.030Z,10.85
2023-04-09T18:05:48.094Z,10.84
2023-04-09T18:08:14.761Z,10.80
2023-04-09T18:10:41.516Z,10.79
2023-04-09T18:13:08.688Z,10.78
2023-04-09T18:15:35.568Z,10.76
2023-04-09T18:18:02.202Z,10.72
2023-04-09T18:20:28.970Z,10.66
2023-04-09T18:22:55.831Z,10.61
2023-04-09T18:25:23.324Z,10.57
2023-04-09T18:27:50.127Z,10.54
2023-04-09T18:30:16.728Z,10.53
2023-04-09T18:32:44.023Z,10.53
2023-04-09T18:35:11.121Z,10.53
2023-04-09T18:37:38.270Z,10.50
2023-04-09T18:40:06.169Z,10.48
2023-04-09T18:42:32.790Z,10.45
2023-04-09T18:44:59.436Z,10.41
2023-04-09T18:47:26.160Z,10.38
2023-04-09T18:49:52.874Z,10.35
2023-04-09T18:52:19.534Z,10.31
2023-04-09T18:54:46.431Z,10.25
2023-04-09T18:57:12.970Z,10.18
2023-04-09T18:59:40.369Z,10.08
2023-04-09T19:02:07.215Z,9.98
2023-04-09T19:04:39.693Z,9.92
2023-04-09T19:07:06.893Z,9.89
2023-04-09T19:09:33.719Z,9.89
2023-04-09T19:12:01.573Z,9.93
2023-04-09T19:14:28.241Z,9.93
2023-04-09T19:16:54.885Z,9.94
2023-04-09T19:19:21.801Z,9.92
2023-04-09T19:21:51.383Z,9.92
2023-04-09T19:24:17.974Z,9.90
2023-04-09T19:26:44.534Z,9.86
2023-04-09T19:29:11.321Z,9.85
2023-04-09T19:31:38.013Z,9.83
2023-04-09T19:34:06.231Z,9.79
2023-04-09T19:36:34.045Z,9.74
2023-04-09T19:39:00.784Z,9.68
2023-04-09T19:41:27.513Z,9.67
2023-04-09T19:43:54.060Z,9.62
2023-04-09T19:46:20.755Z,9.65
2023-04-09T19:48:47.615Z,9.62
2023-04-09T19:51:17.878Z,9.59
2023-04-09T19:53:46.118Z,9.55
2023-04-09T19:56:13.867Z,9.54
2023-04-09T19:58:41.306Z,9.54
2023-04-09T20:01:08.171Z,9.52
2023-04-09T20:03:34.850Z,9.48
2023-04-09T20:06:06.454Z,9.47
2023-04-09T20:08:32.991Z,9.45
2023-04-09T20:10:59.572Z,9.41
2023-04-09T20:13:26.203Z,9.34
2023-04-09T20:15:52.909Z,9.29
2023-04-09T20:18:19.454Z,9.24
2023-04-09T20:20:46.123Z,9.20
2023-04-09T20:23:12.657Z,9.16
2023-04-09T20:25:39.237Z,9.11
2023-04-09T20:28:06.458Z,9.06
2023-04-09T20:30:33.109Z,9.04
2023-04-09T20:32:59.777Z,9.00
2023-04-09T20:35:26.431Z,8.98
2023-04-09T20:37:54.762Z,8.93
2023-04-09T20:40:21.932Z,8.86
2023-04-09T20:42:48.721Z,8.82
2023-04-09T20:45:15.869Z,8.77
2023-04-09T20:47:42.504Z,8.74
2023-04-09T20:50:09.550Z,8.72
2023-04-09T20:52:36.900Z,8.71
2023-04-09T20:55:03.563Z,8.69
2023-04-09T20:57:30.441Z,8.68
2023-04-09T20:59:57.261Z,8.63
2023-04-09T21:02:24.019Z,8.57
2023-04-09T21:04:50.737Z,8.53
2023-04-09T21:07:17.354Z,8.52
2023-04-09T21:09:44.004Z,8.50
2023-04-09T21:12:10.866Z,8.47
2023-04-09T21:14:37.465Z,8.52
2023-04-09T21:17:04.161Z,8.56
2023-04-09T21:19:30.881Z,8.58
2023-04-09T21:21:57.520Z,8.58
2023-04-09T21:24:24.241Z,8.63
2023-04-09T21:26:52.294Z,8.60
2023-04-09T21:29:19.902Z,8.56
2023-04-09T21:31:46.517Z,8.52
2023-04-09T21:34:13.056Z,8.52
2023-04-09T21:36:39.847Z,8.50
2023-04-09T21:39:07.034Z,8.46
2023-04-09T21:41:33.595Z,8.46
2023-04-09T21:44:07.829Z,8.46
2023-04-09T21:46:35.985Z,8.41
2023-04-09T21:49:03.171Z,8.41
2023-04-09T21:51:29.911Z,8.44
2023-04-09T21:54:06.861Z,8.46
2023-04-09T21:56:33.512Z,8.45
2023-04-09T21:59:01.205Z,8.44
2023-04-09T22:01:30.429Z,8.41
2023-04-09T22:03:57.789Z,8.39
2023-04-09T22:06:24.462Z,8.38
2023-04-09T22:08:56.133Z,8.37
2023-04-09T22:11:28.115Z,8.33
2023-04-09T22:13:58.256Z,8.30
2023-04-09T22:16:26.354Z,8.32
2023-04-09T22:18:54.054Z,8.32
2023-04-09T22:21:21.613Z,8.30
2023-04-09T22:23:48.252Z,8.26
2023-04-09T22:26:14.790Z,8.25
2023-04-09T22:28:41.355Z,8.22
2023-04-09T22:31:08.097Z,8.21
2023-04-09T22:33:34.676Z,8.21
2023-04-09T22:36:01.370Z,8.19
2023-04-09T22:38:28.127Z,8.18
2023-04-09T22:40:54.747Z,8.17
2023-04-09T22:43:21.383Z,8.13
2023-04-09T22:45:52.317Z,8.10
2023-04-09T22:48:19.488Z,8.08
2023-04-09T22:50:46.532Z,8.03
2023-04-09T22:53:18.436Z,8.02
2023-04-09T22:55:46.814Z,8.06
2023-04-09T22:58:13.535Z,8.12
2023-04-09T23:00:40.500Z,8.10
2023-04-09T23:03:07.204Z,8.06
2023-04-09T23:05:34.020Z,8.05
2023-04-09T23:08:00.885Z,7.99
2023-04-09T23:10:27.424Z,8.00
2023-04-09T23:12:53.986Z,7.98
2023-04-09T23:15:20.700Z,7.98
2023-04-09T23:17:47.394Z,7.95
2023-04-09T23:20:15.053Z,7.97
2023-04-09T23:22:42.168Z,8.01
2023-04-09T23:25:09.008Z,7.99
2023-04-09T23:27:35.831Z,7.99
2023-04-09T23:30:02.390Z,8.00
2023-04-09T23:32:30.165Z,8.02
2023-04-09T23:34:58.908Z,8.02
2023-04-09T23:37:25.877Z,8.10
2023-04-09T23:39:52.532Z,8.15
2023-04-09T23:42:19.089Z,8.16
2023-04-09T23:44:45.667Z,8.16
2023-04-09T23:47:13.830Z,8.15
2023-04-09T23:49:40.849Z,8.15
2023-04-09T23:52:07.407Z,8.15
2023-04-09T23:54:35.289Z,8.13
2023-04-09T23:57:01.847Z,8.14
2023-04-09T23:59:31.123Z,8.10
